sensor_id;sensor_type;location;lat;lon;timestamp;pressure;altitude;pressure_sealevel;temperature;humidity
65280;BME280;51878;55.748;48.742;2023-04-27T00:04:31;98260.22;;;10.63;100.00
65280;BME280;51878;55.748;48.742;2023-04-27T00:09:33;98130.75;;;9.81;100.00
65280;BME280;51878;55.748;48.742;2023-04-27T00:14:36;98254.38;;;10.59;100.00
65280;BME280;51878;55.748;48.742;2023-04-27T00:19:38;98290.75;;;10.83;100.00
65280;BME280;51878;55.748;48.742;2023-04-27T00:24:42;98202.44;;;10.24;100.00
65280;BME280;51878;55.748;48.742;2023-04-27T00:29:44;98258.56;;;10.55;100.00
65280;BME280;51878;55.748;48.742;2023-04-27T00:34:46;98266.06;;;10.60;100.00
65280;BME280;51878;55.748;48.742;2023-04-27T00:39:48;98283.59;;;10.57;100.00
65280;BME280;51878;55.748;48.742;2023-04-27T00:44:54;98285.63;;;10.68;100.00
65280;BME280;51878;55.748;48.742;2023-04-27T00:49:58;98245.53;;;10.39;100.00
65280;BME280;51878;55.748;48.742;2023-04-27T00:55:02;98234.94;;;10.24;100.00
65280;BME280;51878;55.748;48.742;2023-04-27T01:00:06;98301.63;;;10.77;100.00
65280;BME280;51878;55.748;48.742;2023-04-27T01:05:09;98257.41;;;10.38;100.00
65280;BME280;51878;55.748;48.742;2023-04-27T01:10:11;98299.03;;;10.57;100.00
65280;BME280;51878;55.748;48.742;2023-04-27T01:15:27;98309.59;;;10.65;100.00
65280;BME280;51878;55.748;48.742;2023-04-27T01:20:29;98250.34;;;10.23;100.00
65280;BME280;51878;55.748;48.742;2023-04-27T01:25:32;98335.00;;;10.77;100.00
65280;BME280;51878;55.748;48.742;2023-04-27T01:30:34;98196.94;;;9.85;100.00
65280;BME280;51878;55.748;48.742;2023-04-27T01:35:37;98328.97;;;10.68;100.00
65280;BME280;51878;55.748;48.742;2023-04-27T01:40:39;98351.47;;;10.75;100.00
65280;BME280;51878;55.748;48.742;2023-04-27T01:45:41;98278.06;;;10.32;100.00
65280;BME280;51878;55.748;48.742;2023-04-27T01:50:43;98326.34;;;10.55;100.00
65280;BME280;51878;55.748;48.742;2023-04-27T01:55:48;98242.94;;;10.05;100.00
65280;BME280;51878;55.748;48.742;2023-04-27T02:00:50;98277.00;;;10.26;100.00
65280;BME280;51878;55.748;48.742;2023-04-27T02:05:53;98292.44;;;10.32;100.00
65280;BME280;51878;55.748;48.742;2023-04-27T02:10:55;98268.25;;;10.31;100.00
65280;BME280;51878;55.748;48.742;2023-04-27T02:15:57;98284.91;;;10.41;100.00
65280;BME280;51878;55.748;48.742;2023-04-27T02:21:07;98361.06;;;10.78;100.00
65280;BME280;51878;55.748;48.742;2023-04-27T02:26:17;98196.75;;;9.80;100.00
65280;BME280;51878;55.748;48.742;2023-04-27T02:31:23;98372.91;;;10.90;100.00
65280;BME280;51878;55.748;48.742;2023-04-27T02:36:25;98302.78;;;10.49;100.00
65280;BME280;51878;55.748;48.742;2023-04-27T02:41:31;98275.56;;;10.30;100.00
65280;BME280;51878;55.748;48.742;2023-04-27T02:46:36;98367.50;;;10.84;100.00
65280;BME280;51878;55.748;48.742;2023-04-27T02:51:39;98376.63;;;10.96;100.00
65280;BME280;51878;55.748;48.742;2023-04-27T02:56:41;98376.06;;;10.87;100.00
65280;BME280;51878;55.748;48.742;2023-04-27T03:01:43;98324.63;;;10.67;100.00
65280;BME280;51878;55.748;48.742;2023-04-27T03:06:45;98360.16;;;10.91;100.00
65280;BME280;51878;55.748;48.742;2023-04-27T03:11:47;98376.41;;;10.98;100.00
65280;BME280;51878;55.748;48.742;2023-04-27T03:16:50;98389.31;;;11.02;100.00
65280;BME280;51878;55.748;48.742;2023-04-27T03:21:52;98347.13;;;10.68;100.00
65280;BME280;51878;55.748;48.742;2023-04-27T03:26:54;98349.47;;;10.51;100.00
65280;BME280;51878;55.748;48.742;2023-04-27T03:31:57;98251.94;;;9.79;100.00
65280;BME280;51878;55.748;48.742;2023-04-27T03:37:01;98307.88;;;10.25;100.00
65280;BME280;51878;55.748;48.742;2023-04-27T03:42:04;98331.75;;;10.55;100.00
65280;BME280;51878;55.748;48.742;2023-04-27T03:47:06;98332.13;;;10.65;100.00
65280;BME280;51878;55.748;48.742;2023-04-27T03:52:10;98218.69;;;10.24;100.00
65280;BME280;51878;55.748;48.742;2023-04-27T03:57:12;98315.28;;;11.33;100.00
65280;BME280;51878;55.748;48.742;2023-04-27T04:02:15;98368.66;;;11.96;100.00
65280;BME280;51878;55.748;48.742;2023-04-27T04:07:21;98361.56;;;12.20;100.00
65280;BME280;51878;55.748;48.742;2023-04-27T04:12:30;98239.22;;;11.65;100.00
65280;BME280;51878;55.748;48.742;2023-04-27T04:17:35;98249.13;;;11.78;100.00
65280;BME280;51878;55.748;48.742;2023-04-27T04:22:40;98249.41;;;11.95;100.00
65280;BME280;51878;55.748;48.742;2023-04-27T04:27:52;98256.34;;;12.09;100.00
65280;BME280;51878;55.748;48.742;2023-04-27T04:32:54;98377.91;;;12.94;100.00
65280;BME280;51878;55.748;48.742;2023-04-27T04:37:57;98225.16;;;11.93;100.00
65280;BME280;51878;55.748;48.742;2023-04-27T04:42:59;98316.97;;;12.47;100.00
65280;BME280;51878;55.748;48.742;2023-04-27T04:48:01;98377.59;;;12.84;100.00
65280;BME280;51878;55.748;48.742;2023-04-27T04:53:03;98308.41;;;12.61;100.00
65280;BME280;51878;55.748;48.742;2023-04-27T04:58:06;98314.53;;;12.57;100.00
65280;BME280;51878;55.748;48.742;2023-04-27T05:03:08;98380.81;;;13.11;100.00
65280;BME280;51878;55.748;48.742;2023-04-27T05:08:13;98278.44;;;12.50;100.00
65280;BME280;51878;55.748;48.742;2023-04-27T05:13:17;98388.75;;;13.13;100.00
65280;BME280;51878;55.748;48.742;2023-04-27T05:18:19;98378.78;;;13.07;100.00
65280;BME280;51878;55.748;48.742;2023-04-27T05:23:22;98398.56;;;13.32;100.00
65280;BME280;51878;55.748;48.742;2023-04-27T05:28:24;98356.59;;;13.21;100.00
65280;BME280;51878;55.748;48.742;2023-04-27T05:33:26;98358.38;;;13.46;100.00
65280;BME280;51878;55.748;48.742;2023-04-27T05:38:28;98403.13;;;13.80;100.00
65280;BME280;51878;55.748;48.742;2023-04-27T05:43:30;98323.66;;;13.41;100.00
65280;BME280;51878;55.748;48.742;2023-04-27T05:48:33;98250.31;;;13.16;100.00
65280;BME280;51878;55.748;48.742;2023-04-27T05:53:39;98348.28;;;14.12;99.40
65280;BME280;51878;55.748;48.742;2023-04-27T05:58:41;98323.03;;;14.17;100.00
65280;BME280;51878;55.748;48.742;2023-04-27T06:03:43;98428.97;;;15.07;96.29
65280;BME280;51878;55.748;48.742;2023-04-27T06:08:45;98356.75;;;14.86;88.34
65280;BME280;51878;55.748;48.742;2023-04-27T06:13:49;98399.72;;;15.20;87.38
65280;BME280;51878;55.748;48.742;2023-04-27T06:18:51;98396.19;;;15.48;84.97
65280;BME280;51878;55.748;48.742;2023-04-27T06:23:53;98351.16;;;15.50;83.27
65280;BME280;51878;55.748;48.742;2023-04-27T06:28:55;98442.34;;;16.24;78.33
65280;BME280;51878;55.748;48.742;2023-04-27T06:33:57;98374.66;;;15.97;77.58
65280;BME280;51878;55.748;48.742;2023-04-27T06:39:00;98444.06;;;16.64;73.44
65280;BME280;51878;55.748;48.742;2023-04-27T06:44:02;98378.00;;;16.55;72.48
65280;BME280;51878;55.748;48.742;2023-04-27T06:49:04;98392.72;;;16.71;63.02
65280;BME280;51878;55.748;48.742;2023-04-27T06:54:07;98431.84;;;16.88;62.19
65280;BME280;51878;55.748;48.742;2023-04-27T06:59:09;98361.19;;;16.85;61.01
65280;BME280;51878;55.748;48.742;2023-04-27T07:04:11;98380.97;;;16.92;58.85
65280;BME280;51878;55.748;48.742;2023-04-27T07:09:16;98367.47;;;17.08;59.51
65280;BME280;51878;55.748;48.742;2023-04-27T07:14:31;98497.31;;;17.73;56.93
65280;BME280;51878;55.748;48.742;2023-04-27T07:19:35;98453.13;;;17.69;53.68
65280;BME280;51878;55.748;48.742;2023-04-27T07:24:37;98382.56;;;17.10;57.87
65280;BME280;51878;55.748;48.742;2023-04-27T07:29:40;98390.16;;;16.81;56.50
65280;BME280;51878;55.748;48.742;2023-04-27T07:34:43;98449.78;;;17.18;58.98
65280;BME280;51878;55.748;48.742;2023-04-27T07:39:53;98371.94;;;16.53;57.72
65280;BME280;51878;55.748;48.742;2023-04-27T07:44:56;98434.75;;;16.99;62.80
65280;BME280;51878;55.748;48.742;2023-04-27T07:49:58;98438.50;;;17.14;64.38
65280;BME280;51878;55.748;48.742;2023-04-27T07:55:06;98332.22;;;16.50;60.41
65280;BME280;51878;55.748;48.742;2023-04-27T08:00:17;98435.69;;;17.31;59.67
65280;BME280;51878;55.748;48.742;2023-04-27T08:05:20;98441.91;;;17.71;58.26
65280;BME280;51878;55.748;48.742;2023-04-27T08:10:24;98437.78;;;17.68;57.27
65280;BME280;51878;55.748;48.742;2023-04-27T08:15:26;98415.31;;;17.71;54.73
65280;BME280;51878;55.748;48.742;2023-04-27T08:20:28;98366.53;;;17.73;57.00
65280;BME280;51878;55.748;48.742;2023-04-27T08:25:31;98335.56;;;16.97;54.82
65280;BME280;51878;55.748;48.742;2023-04-27T08:30:33;98436.56;;;17.59;56.56
65280;BME280;51878;55.748;48.742;2023-04-27T08:35:38;98444.13;;;18.01;59.14
65280;BME280;51878;55.748;48.742;2023-04-27T08:40:47;98461.53;;;18.44;57.08
65280;BME280;51878;55.748;48.742;2023-04-27T08:45:51;98466.53;;;18.52;57.19
65280;BME280;51878;55.748;48.742;2023-04-27T08:50:55;98333.78;;;18.26;55.63
65280;BME280;51878;55.748;48.742;2023-04-27T08:55:58;98440.56;;;19.08;53.19
65280;BME280;51878;55.748;48.742;2023-04-27T09:01:04;98376.16;;;18.88;51.19
65280;BME280;51878;55.748;48.742;2023-04-27T09:06:08;98459.44;;;19.52;48.05
65280;BME280;51878;55.748;48.742;2023-04-27T09:11:10;98339.53;;;18.72;49.71
65280;BME280;51878;55.748;48.742;2023-04-27T09:16:12;98445.72;;;18.99;50.07
65280;BME280;51878;55.748;48.742;2023-04-27T09:21:26;98457.63;;;19.15;52.31
65280;BME280;51878;55.748;48.742;2023-04-27T09:26:28;98452.63;;;19.07;47.75
65280;BME280;51878;55.748;48.742;2023-04-27T09:31:36;98481.13;;;19.53;47.20
65280;BME280;51878;55.748;48.742;2023-04-27T09:36:39;98408.31;;;19.56;48.33
65280;BME280;51878;55.748;48.742;2023-04-27T09:41:41;98413.06;;;20.01;45.88
65280;BME280;51878;55.748;48.742;2023-04-27T09:46:43;98486.00;;;21.07;45.14
65280;BME280;51878;55.748;48.742;2023-04-27T09:51:48;98482.84;;;21.49;41.61
65280;BME280;51878;55.748;48.742;2023-04-27T10:02:05;98429.84;;;20.82;43.50
65280;BME280;51878;55.748;48.742;2023-04-27T10:07:25;98479.09;;;21.09;42.73
65280;BME280;51878;55.748;48.742;2023-04-27T10:12:35;98467.34;;;21.63;40.20
65280;BME280;51878;55.748;48.742;2023-04-27T10:17:37;98455.19;;;22.09;40.69
65280;BME280;51878;55.748;48.742;2023-04-27T10:22:47;98451.06;;;22.51;40.02
65280;BME280;51878;55.748;48.742;2023-04-27T10:27:58;98484.84;;;23.06;36.86
65280;BME280;51878;55.748;48.742;2023-04-27T10:33:06;98481.25;;;22.72;36.47
65280;BME280;51878;55.748;48.742;2023-04-27T10:38:14;98399.41;;;21.73;38.34
65280;BME280;51878;55.748;48.742;2023-04-27T10:43:17;98464.34;;;22.44;38.06
65280;BME280;51878;55.748;48.742;2023-04-27T10:48:24;98453.38;;;22.39;38.24
65280;BME280;51878;55.748;48.742;2023-04-27T10:53:33;98476.81;;;22.76;36.90
65280;BME280;51878;55.748;48.742;2023-04-27T10:58:36;98447.88;;;22.92;35.63
65280;BME280;51878;55.748;48.742;2023-04-27T11:03:57;98485.47;;;23.22;35.45
65280;BME280;51878;55.748;48.742;2023-04-27T11:09:00;98501.19;;;23.51;33.83
65280;BME280;51878;55.748;48.742;2023-04-27T11:14:02;98395.00;;;22.45;35.29
65280;BME280;51878;55.748;48.742;2023-04-27T11:19:05;98354.53;;;22.31;34.41
65280;BME280;51878;55.748;48.742;2023-04-27T11:24:08;98452.69;;;23.10;34.59
65280;BME280;51878;55.748;48.742;2023-04-27T11:29:11;98492.25;;;22.77;34.72
65280;BME280;51878;55.748;48.742;2023-04-27T11:34:26;98460.47;;;23.08;35.21
65280;BME280;51878;55.748;48.742;2023-04-27T11:39:32;98453.00;;;23.09;35.31
65280;BME280;51878;55.748;48.742;2023-04-27T11:44:35;98421.16;;;23.36;34.47
65280;BME280;51878;55.748;48.742;2023-04-27T11:49:38;98341.91;;;22.19;36.59
65280;BME280;51878;55.748;48.742;2023-04-27T11:55:01;98477.72;;;22.95;37.61
65280;BME280;51878;55.748;48.742;2023-04-27T12:00:06;98387.41;;;22.61;37.12
65280;BME280;51878;55.748;48.742;2023-04-27T12:05:16;98475.63;;;24.02;35.33
65280;BME280;51878;55.748;48.742;2023-04-27T12:10:20;98475.81;;;24.44;33.51
65280;BME280;51878;55.748;48.742;2023-04-27T12:15:23;98438.13;;;24.62;33.35
65280;BME280;51878;55.748;48.742;2023-04-27T12:20:25;98437.91;;;25.19;32.39
65280;BME280;51878;55.748;48.742;2023-04-27T12:25:27;98458.09;;;23.21;35.81
65280;BME280;51878;55.748;48.742;2023-04-27T12:30:29;98428.47;;;23.45;36.59
65280;BME280;51878;55.748;48.742;2023-04-27T12:35:32;98470.88;;;24.60;34.79
65280;BME280;51878;55.748;48.742;2023-04-27T12:40:34;98509.69;;;25.25;34.67
65280;BME280;51878;55.748;48.742;2023-04-27T12:45:36;98488.19;;;25.72;34.22
65280;BME280;51878;55.748;48.742;2023-04-27T12:50:38;98512.25;;;25.49;33.98
65280;BME280;51878;55.748;48.742;2023-04-27T12:55:41;98439.13;;;25.68;33.06
65280;BME280;51878;55.748;48.742;2023-04-27T13:00:44;98508.91;;;28.18;30.74
65280;BME280;51878;55.748;48.742;2023-04-27T13:05:47;98504.72;;;29.58;28.11
65280;BME280;51878;55.748;48.742;2023-04-27T13:10:49;98405.09;;;29.62;27.72
65280;BME280;51878;55.748;48.742;2023-04-27T13:15:51;98521.44;;;30.26;26.97
65280;BME280;51878;55.748;48.742;2023-04-27T13:20:54;98524.78;;;28.17;29.66
65280;BME280;51878;55.748;48.742;2023-04-27T13:25:56;98473.53;;;26.08;32.16
65280;BME280;51878;55.748;48.742;2023-04-27T13:30:58;98481.41;;;25.51;32.88
65280;BME280;51878;55.748;48.742;2023-04-27T13:36:01;98480.13;;;25.15;34.12
65280;BME280;51878;55.748;48.742;2023-04-27T13:41:05;98529.78;;;26.64;32.01
65280;BME280;51878;55.748;48.742;2023-04-27T13:46:07;98519.28;;;26.25;32.79
65280;BME280;51878;55.748;48.742;2023-04-27T13:51:09;98530.00;;;26.54;32.75
65280;BME280;51878;55.748;48.742;2023-04-27T13:56:11;98532.97;;;27.03;32.44
65280;BME280;51878;55.748;48.742;2023-04-27T14:01:14;98498.28;;;26.55;32.73
65280;BME280;51878;55.748;48.742;2023-04-27T14:06:16;98571.72;;;26.90;32.72
65280;BME280;51878;55.748;48.742;2023-04-27T14:11:18;98521.75;;;27.08;32.38
65280;BME280;51878;55.748;48.742;2023-04-27T14:16:21;98564.97;;;27.68;31.32
65280;BME280;51878;55.748;48.742;2023-04-27T14:21:25;98565.97;;;28.20;30.17
65280;BME280;51878;55.748;48.742;2023-04-27T14:26:28;98571.03;;;28.10;30.76
65280;BME280;51878;55.748;48.742;2023-04-27T14:31:30;98583.63;;;27.98;30.43
65280;BME280;51878;55.748;48.742;2023-04-27T14:36:33;98534.44;;;27.54;30.70
65280;BME280;51878;55.748;48.742;2023-04-27T14:41:35;98548.69;;;26.76;30.77
65280;BME280;51878;55.748;48.742;2023-04-27T14:46:40;98477.84;;;24.90;33.08
65280;BME280;51878;55.748;48.742;2023-04-27T14:51:42;98587.28;;;25.44;33.66
65280;BME280;51878;55.748;48.742;2023-04-27T14:56:45;98548.78;;;24.39;34.61
65280;BME280;51878;55.748;48.742;2023-04-27T15:01:47;98576.44;;;24.63;34.91
65280;BME280;51878;55.748;48.742;2023-04-27T15:06:49;98573.78;;;24.15;35.47
65280;BME280;51878;55.748;48.742;2023-04-27T15:11:51;98615.38;;;23.62;36.85
65280;BME280;51878;55.748;48.742;2023-04-27T15:16:53;98634.34;;;22.76;38.58
65280;BME280;51878;55.748;48.742;2023-04-27T15:21:56;98575.22;;;21.62;39.92
65280;BME280;51878;55.748;48.742;2023-04-27T15:26:58;98646.41;;;20.73;41.94
65280;BME280;51878;55.748;48.742;2023-04-27T15:32:00;98653.09;;;20.19;43.37
65280;BME280;51878;55.748;48.742;2023-04-27T15:37:02;98588.56;;;19.36;44.54
65280;BME280;51878;55.748;48.742;2023-04-27T15:42:04;98612.03;;;19.12;45.35
65280;BME280;51878;55.748;48.742;2023-04-27T15:47:06;98665.28;;;19.06;47.12
65280;BME280;51878;55.748;48.742;2023-04-27T15:52:09;98658.59;;;18.69;47.42
65280;BME280;51878;55.748;48.742;2023-04-27T15:57:11;98571.59;;;17.71;48.51
65280;BME280;51878;55.748;48.742;2023-04-27T16:02:13;98630.75;;;17.67;48.93
65280;BME280;51878;55.748;48.742;2023-04-27T16:07:16;98695.56;;;17.56;51.02
65280;BME280;51878;55.748;48.742;2023-04-27T16:12:18;98591.94;;;16.52;52.58
65280;BME280;51878;55.748;48.742;2023-04-27T16:17:20;98611.44;;;16.27;54.27
65280;BME280;51878;55.748;48.742;2023-04-27T16:22:22;98663.69;;;16.25;56.24
65280;BME280;51878;55.748;48.742;2023-04-27T16:27:29;98618.41;;;15.65;57.62
65280;BME280;51878;55.748;48.742;2023-04-27T16:32:32;98629.81;;;15.50;58.51
65280;BME280;51878;55.748;48.742;2023-04-27T16:37:36;98715.84;;;15.72;60.86
65280;BME280;51878;55.748;48.742;2023-04-27T16:42:39;98687.16;;;15.27;62.53
65280;BME280;51878;55.748;48.742;2023-04-27T16:47:44;98653.66;;;14.84;63.53
65280;BME280;51878;55.748;48.742;2023-04-27T16:52:48;98737.88;;;15.23;63.95
65280;BME280;51878;55.748;48.742;2023-04-27T16:57:50;98699.56;;;14.87;65.77
65280;BME280;51878;55.748;48.742;2023-04-27T17:02:52;98679.66;;;14.57;66.13
65280;BME280;51878;55.748;48.742;2023-04-27T17:07:55;98742.88;;;14.84;67.17
65280;BME280;51878;55.748;48.742;2023-04-27T17:12:58;98714.50;;;14.55;67.61
65280;BME280;51878;55.748;48.742;2023-04-27T17:18:03;98677.44;;;14.17;69.14
65280;BME280;51878;55.748;48.742;2023-04-27T17:23:05;98762.00;;;14.65;69.43
65280;BME280;51878;55.748;48.742;2023-04-27T17:28:08;98561.97;;;13.26;69.93
65280;BME280;51878;55.748;48.742;2023-04-27T17:33:13;98727.50;;;14.22;71.15
65280;BME280;51878;55.748;48.742;2023-04-27T17:38:20;98760.28;;;14.34;72.50
65280;BME280;51878;55.748;48.742;2023-04-27T17:43:23;98704.09;;;13.96;72.59
65280;BME280;51878;55.748;48.742;2023-04-27T17:48:25;98713.56;;;13.94;73.61
65280;BME280;51878;55.748;48.742;2023-04-27T17:53:27;98759.69;;;14.14;74.29
65280;BME280;51878;55.748;48.742;2023-04-27T17:58:29;98781.84;;;14.17;74.48
65280;BME280;51878;55.748;48.742;2023-04-27T18:03:33;98758.81;;;13.95;77.90
65280;BME280;51878;55.748;48.742;2023-04-27T18:08:35;98748.13;;;13.75;80.18
65280;BME280;51878;55.748;48.742;2023-04-27T18:13:37;98746.22;;;13.75;80.81
65280;BME280;51878;55.748;48.742;2023-04-27T18:18:41;98586.78;;;12.67;79.84
65280;BME280;51878;55.748;48.742;2023-04-27T18:23:46;98685.34;;;13.19;80.24
65280;BME280;51878;55.748;48.742;2023-04-27T18:28:49;98757.25;;;13.62;80.21
65280;BME280;51878;55.748;48.742;2023-04-27T18:33:53;98771.00;;;13.74;80.06
65280;BME280;51878;55.748;48.742;2023-04-27T18:38:56;98768.75;;;13.64;79.96
65280;BME280;51878;55.748;48.742;2023-04-27T18:44:03;98794.44;;;13.75;80.84
65280;BME280;51878;55.748;48.742;2023-04-27T18:49:17;98635.41;;;12.57;84.32
65280;BME280;51878;55.748;48.742;2023-04-27T18:54:51;98727.09;;;13.07;89.45
65280;BME280;51878;55.748;48.742;2023-04-27T18:59:56;98777.22;;;13.31;91.84
65280;BME280;51878;55.748;48.742;2023-04-27T19:05:05;98666.75;;;12.59;93.74
65280;BME280;51878;55.748;48.742;2023-04-27T19:10:23;98778.28;;;13.30;93.35
65280;BME280;51878;55.748;48.742;2023-04-27T19:15:26;98784.56;;;13.30;93.35
65280;BME280;51878;55.748;48.742;2023-04-27T19:20:28;98767.63;;;13.21;93.38
65280;BME280;51878;55.748;48.742;2023-04-27T19:25:33;98798.16;;;13.30;96.06
65280;BME280;51878;55.748;48.742;2023-04-27T19:30:39;98764.84;;;13.03;96.28
65280;BME280;51878;55.748;48.742;2023-04-27T19:35:46;98702.28;;;12.65;97.58
65280;BME280;51878;55.748;48.742;2023-04-27T19:40:48;98734.63;;;12.79;98.92
65280;BME280;51878;55.748;48.742;2023-04-27T19:45:50;98774.91;;;12.96;99.10
65280;BME280;51878;55.748;48.742;2023-04-27T19:50:53;98715.19;;;12.37;99.33
65280;BME280;51878;55.748;48.742;2023-04-27T19:55:59;98772.44;;;12.49;100.00
65280;BME280;51878;55.748;48.742;2023-04-27T20:01:04;98728.91;;;12.11;100.00
65280;BME280;51878;55.748;48.742;2023-04-27T20:06:07;98764.19;;;12.24;100.00
65280;BME280;51878;55.748;48.742;2023-04-27T20:11:11;98632.56;;;11.28;100.00
65280;BME280;51878;55.748;48.742;2023-04-27T20:16:13;98730.81;;;11.90;100.00
65280;BME280;51878;55.748;48.742;2023-04-27T20:21:15;98770.69;;;12.10;100.00
65280;BME280;51878;55.748;48.742;2023-04-27T20:26:20;98778.84;;;12.10;100.00
65280;BME280;51878;55.748;48.742;2023-04-27T20:31:23;98825.59;;;12.38;100.00
65280;BME280;51878;55.748;48.742;2023-04-27T20:36:25;98818.94;;;12.28;100.00
65280;BME280;51878;55.748;48.742;2023-04-27T20:41:28;98805.00;;;12.04;100.00
65280;BME280;51878;55.748;48.742;2023-04-27T20:46:31;98840.69;;;12.14;100.00
65280;BME280;51878;55.748;48.742;2023-04-27T20:51:33;98695.63;;;11.10;100.00
65280;BME280;51878;55.748;48.742;2023-04-27T20:56:35;98841.16;;;11.91;100.00
65280;BME280;51878;55.748;48.742;2023-04-27T21:01:37;98822.34;;;11.76;100.00
65280;BME280;51878;55.748;48.742;2023-04-27T21:06:40;98794.56;;;11.54;100.00
65280;BME280;51878;55.748;48.742;2023-04-27T21:11:45;98889.63;;;12.08;100.00
65280;BME280;51878;55.748;48.742;2023-04-27T21:16:48;98816.72;;;11.65;100.00
65280;BME280;51878;55.748;48.742;2023-04-27T21:21:50;98669.09;;;10.66;100.00
65280;BME280;51878;55.748;48.742;2023-04-27T21:26:56;98853.66;;;11.79;100.00
65280;BME280;51878;55.748;48.742;2023-04-27T21:31:58;98783.25;;;11.17;100.00
65280;BME280;51878;55.748;48.742;2023-04-27T21:37:02;98787.00;;;11.03;100.00
65280;BME280;51878;55.748;48.742;2023-04-27T21:42:04;98826.94;;;11.36;100.00
65280;BME280;51878;55.748;48.742;2023-04-27T21:47:06;98844.06;;;11.43;100.00
65280;BME280;51878;55.748;48.742;2023-04-27T21:52:09;98856.16;;;11.41;100.00
65280;BME280;51878;55.748;48.742;2023-04-27T21:57:12;98830.66;;;11.22;100.00
65280;BME280;51878;55.748;48.742;2023-04-27T22:02:14;98867.66;;;11.43;100.00
65280;BME280;51878;55.748;48.742;2023-04-27T22:07:17;98782.56;;;10.82;100.00
65280;BME280;51878;55.748;48.742;2023-04-27T22:12:19;98887.06;;;11.46;100.00
65280;BME280;51878;55.748;48.742;2023-04-27T22:17:21;98874.09;;;11.42;100.00
65280;BME280;51878;55.748;48.742;2023-04-27T22:22:23;98865.72;;;11.23;100.00
65280;BME280;51878;55.748;48.742;2023-04-27T22:27:26;98822.91;;;11.05;100.00
65280;BME280;51878;55.748;48.742;2023-04-27T22:32:36;98880.41;;;11.42;100.00
65280;BME280;51878;55.748;48.742;2023-04-27T22:37:39;98752.28;;;10.59;100.00
65280;BME280;51878;55.748;48.742;2023-04-27T22:42:41;98776.28;;;10.68;100.00
65280;BME280;51878;55.748;48.742;2023-04-27T22:47:43;98861.31;;;11.15;100.00
65280;BME280;51878;55.748;48.742;2023-04-27T22:52:46;98880.13;;;11.30;100.00
65280;BME280;51878;55.748;48.742;2023-04-27T22:57:49;98720.31;;;10.34;100.00
65280;BME280;51878;55.748;48.742;2023-04-27T23:02:51;98829.97;;;10.93;100.00
65280;BME280;51878;55.748;48.742;2023-04-27T23:07:53;98904.38;;;11.38;100.00
65280;BME280;51878;55.748;48.742;2023-04-27T23:12:55;98786.66;;;10.58;100.00
65280;BME280;51878;55.748;48.742;2023-04-27T23:17:57;98737.19;;;10.36;100.00
65280;BME280;51878;55.748;48.742;2023-04-27T23:23:00;98806.34;;;10.80;100.00
65280;BME280;51878;55.748;48.742;2023-04-27T23:28:02;98924.88;;;11.48;100.00
65280;BME280;51878;55.748;48.742;2023-04-27T23:33:04;98811.72;;;10.67;100.00
65280;BME280;51878;55.748;48.742;2023-04-27T23:38:06;98897.03;;;11.19;100.00
65280;BME280;51878;55.748;48.742;2023-04-27T23:43:09;98895.56;;;11.16;100.00
65280;BME280;51878;55.748;48.742;2023-04-27T23:48:11;98879.72;;;11.13;100.00
65280;BME280;51878;55.748;48.742;2023-04-27T23:53:13;98926.31;;;11.50;100.00
65280;BME280;51878;55.748;48.742;2023-04-27T23:58:15;98917.16;;;11.51;100.00
